Milton Freewater, Oregon
Current Conditions -  °F | °C
As of 10:53 AM on Tuesday 21 Oct 2014 (Local Time) from KALW Reporting Station
Broken Clouds Broken Clouds  
Wind Chill: 58°   Ceiling: 5500
Heat Index: 58°   Visibility: 10mi
Dew Point: 43°   Wind: 15mph
Humidity: 58%   Direction: 210°SSW
Pressure: 29.97"   Gusts: NA
Location:  45.94°N, 118.39°W
Report Text: KALW 211753Z 21013KT 10SM BKN055 BKN080 14/06 A2997 RMK AO2 SLP151 T01440061 10150 20117 51013
Loading
Personal Weather Stations






























Interactive Weather Map
Tropical Storm Tracking
New forecast layout! Learn more

10-Day Weather Forecast

Advertisements
Track Severe Weather on mobile